Time;durP1;ratioP1;P1;durP2;ratioP2;P2;SDS_P1;SDS_P2;PMS_P1;PMS_P2;Temp;Humidity;BMP_temperature;BMP_pressure;BME280_temperature;BME280_humidity;BME280_pressure;Samples;Min_cycle;Max_cycle;Signal;HPM_P1;HPM_P2
2021/03/06 00:02:51;;;;;;;1999.90;999.90;;;;;;;0.70;58.15;102673.41;15846475;28;20560;-64
2021/03/06 00:10:24;;;;;;;1999.90;999.90;;;;;;;0.54;57.57;102677.53;15801225;28;20085;-64
2021/03/06 00:17:57;;;;;;;1999.90;999.90;;;;;;;0.49;58.54;102680.06;15829471;28;20063;-64
2021/03/06 00:25:29;;;;;;;1999.90;999.90;;;;;;;0.48;58.91;102674.81;15835051;28;20060;-64
2021/03/06 00:33:08;;;;;;;1999.90;999.90;;;;;;;0.37;59.46;102668.09;15821246;28;20342;-63
2021/03/06 00:40:44;;;;;;;1999.90;999.90;;;;;;;0.33;60.23;102672.34;15791551;28;20064;-64
2021/03/06 00:48:19;;;;;;;1999.90;999.90;;;;;;;0.48;58.71;102672.06;15820650;28;20033;-64
2021/03/06 00:55:54;;;;;;;1999.90;999.90;;;;;;;0.26;60.01;102661.38;15826718;28;20585;-64
2021/03/06 01:03:27;;;;;;;1999.90;999.90;;;;;;;0.22;59.92;102656.53;15822378;28;20093;-63
2021/03/06 01:11:01;;;;;;;1999.90;999.90;;;;;;;0.20;59.31;102658.63;15827045;28;20048;-64
2021/03/06 01:18:36;;;;;;;1999.90;999.90;;;;;;;0.02;60.11;102653.03;15838932;28;20448;-64
2021/03/06 01:26:08;;;;;;;1999.90;999.90;;;;;;;0.06;59.50;102640.53;15837345;28;20048;-64
2021/03/06 01:33:44;;;;;;;1999.90;999.90;;;;;;;-0.01;60.68;102646.88;15852506;28;20092;-63
2021/03/06 01:41:16;;;;;;;1999.90;999.90;;;;;;;-0.16;60.72;102629.84;15798666;28;20050;-64
2021/03/06 01:48:54;;;;;;;1999.90;999.90;;;;;;;-0.01;60.43;102624.91;15833004;28;20127;-64
2021/03/06 01:56:31;;;;;;;1999.90;999.90;;;;;;;-0.05;60.03;102633.81;15828702;28;20603;-63
2021/03/06 02:04:04;;;;;;;1999.90;999.90;;;;;;;-0.10;60.28;102639.13;15861528;28;20043;-63
2021/03/06 02:11:43;;;;;;;1999.90;999.90;;;;;;;-0.17;61.07;102641.03;15843850;28;20497;-65
2021/03/06 02:19:38;;;;;;;1999.90;999.90;;;;;;;-0.30;61.52;102626.28;15851321;28;20427;-63
2021/03/06 02:27:20;;;;;;;1999.90;999.90;;;;;;;-0.22;60.93;102625.19;15807480;28;20044;-62
2021/03/06 02:35:08;;;;;;;1999.90;999.90;;;;;;;-0.21;60.69;102623.28;15806359;28;20164;-64
2021/03/06 02:42:41;;;;;;;1999.90;999.90;;;;;;;-0.28;61.10;102615.09;15841597;28;20044;-65
2021/03/06 02:50:14;;;;;;;1999.90;999.90;;;;;;;-0.26;60.83;102615.72;15829150;28;20047;-63
2021/03/06 02:58:09;;;;;;;1999.90;999.90;;;;;;;-0.24;60.69;102618.25;15851433;28;20071;-63
2021/03/06 03:05:49;;;;;;;1999.90;999.90;;;;;;;-0.30;60.84;102615.31;15811457;28;20047;-64
2021/03/06 03:13:22;;;;;;;1999.90;999.90;;;;;;;-0.35;61.02;102603.28;15816625;28;20046;-64
2021/03/06 03:20:56;;;;;;;1999.90;999.90;;;;;;;-0.36;60.80;102610.66;15843025;28;20389;-63
2021/03/06 03:28:30;;;;;;;1999.90;999.90;;;;;;;-0.41;62.16;102604.16;15819175;22;20089;-53
2021/03/06 03:36:05;;;;;;;1999.90;999.90;;;;;;;-0.38;61.58;102603.72;15782158;28;20492;-54
2021/03/06 03:43:41;;;;;;;1999.90;999.90;;;;;;;-0.42;61.61;102610.66;15799609;28;20047;-54
2021/03/06 03:51:16;;;;;;;1999.90;999.90;;;;;;;-0.47;62.21;102614.06;15782621;28;20093;-56
2021/03/06 03:58:48;;;;;;;1999.90;999.90;;;;;;;-0.46;62.24;102614.91;15799055;28;20473;-56
2021/03/06 04:06:20;;;;;;;1999.90;999.90;;;;;;;-0.52;62.38;102622.09;15791978;28;20456;-51
2021/03/06 04:13:52;;;;;;;1999.90;999.90;;;;;;;-0.52;62.46;102616.63;15798288;28;20400;-56
2021/03/06 04:21:25;;;;;;;1999.90;999.90;;;;;;;-0.69;63.04;102623.59;15784331;28;20052;-52
2021/03/06 04:28:56;;;;;;;1999.90;999.90;;;;;;;-1.05;64.01;102627.56;15833998;28;20126;-55
2021/03/06 04:36:29;;;;;;;1999.90;999.90;;;;;;;-1.19;64.56;102623.13;15829443;28;20448;-53
2021/03/06 04:44:00;;;;;;;1999.90;999.90;;;;;;;-1.03;64.20;102622.75;15801513;28;20050;-56
2021/03/06 04:51:33;;;;;;;1999.90;999.90;;;;;;;-1.05;63.93;102633.06;15825624;28;20403;-53
2021/03/06 04:59:11;;;;;;;1999.90;999.90;;;;;;;-0.99;63.92;102636.88;15789944;28;20553;-51
2021/03/06 05:06:45;;;;;;;1999.90;999.90;;;;;;;-1.04;63.63;102634.75;15844782;28;20051;-55
2021/03/06 05:14:18;;;;;;;1999.90;999.90;;;;;;;-1.15;64.24;102635.34;15820179;28;20043;-53
2021/03/06 05:21:50;;;;;;;1999.90;999.90;;;;;;;-1.17;64.52;102645.69;15821724;28;20043;-53
2021/03/06 05:29:22;;;;;;;1999.90;999.90;;;;;;;-1.12;64.45;102654.13;15844949;28;20040;-57
2021/03/06 05:36:54;;;;;;;1999.90;999.90;;;;;;;-1.06;64.05;102660.66;15809869;28;20123;-52
2021/03/06 05:44:26;;;;;;;1999.90;999.90;;;;;;;-1.02;63.99;102668.28;15837091;28;20431;-53
2021/03/06 05:52:00;;;;;;;1999.90;999.90;;;;;;;-0.81;63.88;102670.00;15845644;28;20491;-57
2021/03/06 05:59:34;;;;;;;1999.90;999.90;;;;;;;-0.81;63.92;102663.66;15853025;28;20500;-55
2021/03/06 06:07:09;;;;;;;1999.90;999.90;;;;;;;-0.60;63.34;102664.31;15832508;28;20046;-53
2021/03/06 06:14:46;;;;;;;1999.90;999.90;;;;;;;-0.52;63.49;102668.75;15859282;28;20042;-54
2021/03/06 06:22:20;;;;;;;1999.90;999.90;;;;;;;-0.35;62.87;102683.69;15771681;28;20156;-54
2021/03/06 06:30:00;;;;;;;1999.90;999.90;;;;;;;0.10;62.20;102683.81;15862813;28;20043;-51
2021/03/06 06:37:40;;;;;;;1999.90;999.90;;;;;;;0.18;61.83;102683.56;15864139;28;20043;-53
2021/03/06 06:45:16;;;;;;;1999.90;999.90;;;;;;;0.34;62.07;102687.75;15822911;28;20213;-55
2021/03/06 06:52:51;;;;;;;1999.90;999.90;;;;;;;0.67;61.53;102692.25;15841784;28;20048;-55
2021/03/06 07:00:29;;;;;;;1999.90;999.90;;;;;;;1.38;60.21;102698.38;15814353;28;20043;-51
2021/03/06 07:08:10;;;;;;;1999.90;999.90;;;;;;;3.01;56.35;102691.44;15820715;28;20044;-51
2021/03/06 07:15:53;;;;;;;1999.90;999.90;;;;;;;3.55;54.88;102695.06;15828119;28;20451;-51
2021/03/06 07:23:26;;;;;;;1999.90;999.90;;;;;;;4.94;52.19;102707.00;15806510;28;20067;-51
2021/03/06 07:31:00;;;;;;;1999.90;999.90;;;;;;;6.26;49.13;102692.63;15861416;28;20036;-52
2021/03/06 07:38:34;;;;;;;1999.90;999.90;;;;;;;6.14;50.20;102702.97;15811510;28;20318;-56
2021/03/06 07:46:09;;;;;;;1999.90;999.90;;;;;;;5.11;52.65;102699.59;15804313;28;20054;-56
2021/03/06 07:53:45;;;;;;;1999.90;999.90;;;;;;;5.79;52.05;102695.78;15799539;28;20130;-52
2021/03/06 08:01:28;;;;;;;1999.90;999.90;;;;;;;5.58;52.22;102685.47;15797831;28;20393;-56
2021/03/06 08:09:05;;;;;;;1999.90;999.90;;;;;;;6.62;49.85;102684.75;15778630;28;20189;-55
2021/03/06 08:16:40;;;;;;;1999.90;999.90;;;;;;;7.41;49.99;102696.19;15797728;28;20067;-52
2021/03/06 08:24:27;;;;;;;1999.90;999.90;;;;;;;7.15;49.39;102685.91;15763534;28;20043;-53
2021/03/06 08:32:01;;;;;;;1999.90;999.90;;;;;;;7.93;48.71;102697.44;15801938;28;20113;-51
2021/03/06 08:39:34;;;;;;;;;;;;;;;8.40;48.14;102700.25;15802656;28;20032;-53
2021/03/06 08:47:06;;;;;;;1999.90;999.90;;;;;;;8.02;48.07;102698.56;15787543;28;19937;-54
2021/03/06 10:55:34;;;;;;;1999.90;999.90;;;;;;;6.44;55.64;102683.16;15735814;28;20344;-66
2021/03/06 11:03:08;;;;;;;1999.90;999.90;;;;;;;6.21;57.16;102684.22;15719087;28;20143;-65
2021/03/06 11:10:42;;;;;;;1999.90;999.90;;;;;;;5.67;60.62;102697.81;15745015;28;20040;-65
2021/03/06 11:18:14;;;;;;;1999.90;999.90;;;;;;;5.44;62.39;102696.03;15726386;28;20627;-63
2021/03/06 11:25:47;;;;;;;1999.90;999.90;;;;;;;5.94;60.98;102681.38;15734055;28;20478;-66
2021/03/06 11:33:19;;;;;;;1999.90;999.90;;;;;;;5.85;61.37;102668.16;15725015;28;20048;-66
2021/03/06 11:40:54;;;;;;;1999.90;999.90;;;;;;;5.70;61.78;102668.75;15742234;28;20083;-66
2021/03/06 11:48:27;;;;;;;1999.90;999.90;;;;;;;6.01;61.28;102668.16;15741256;28;20064;-66
2021/03/06 11:56:00;;;;;;;1999.90;999.90;;;;;;;5.89;61.48;102661.00;15722967;28;20454;-67
2021/03/06 12:03:31;;;;;;;1999.90;999.90;;;;;;;6.00;60.82;102654.53;15743496;28;20040;-67
2021/03/06 12:11:04;;;;;;;1999.90;999.90;;;;;;;5.46;62.31;102638.47;15743103;28;20037;-67
2021/03/06 12:18:36;;;;;;;1999.90;999.90;;;;;;;6.16;60.97;102636.22;15740236;28;20036;-66
2021/03/06 12:26:09;;;;;;;1999.90;999.90;;;;;;;6.07;59.94;102652.44;15746794;28;20052;-65
2021/03/06 12:33:40;;;;;;;1999.90;999.90;;;;;;;5.97;59.57;102638.44;15744048;28;20424;-65
2021/03/06 12:41:13;;;;;;;1999.90;999.90;;;;;;;6.06;59.80;102620.28;15741882;28;20566;-64
2021/03/06 12:48:45;;;;;;;1999.90;999.90;;;;;;;5.76;59.37;102626.19;15747810;28;20064;-64
2021/03/06 12:56:18;;;;;;;1999.90;999.90;;;;;;;6.22;58.90;102616.59;15737166;28;20052;-66
2021/03/06 13:03:50;;;;;;;1999.90;999.90;;;;;;;6.27;57.62;102608.34;15752808;28;20062;-64
2021/03/06 13:11:23;;;;;;;1999.90;999.90;;;;;;;6.78;56.10;102603.38;15753524;28;20334;-65
2021/03/06 13:18:54;;;;;;;1999.90;999.90;;;;;;;7.66;54.22;102592.72;15750082;28;20083;-63
2021/03/06 13:26:27;;;;;;;1999.90;999.90;;;;;;;8.43;51.40;102593.97;15749714;28;20048;-67
2021/03/06 13:33:58;;;;;;;1999.90;999.90;;;;;;;7.05;54.83;102577.53;15754178;28;20033;-67
2021/03/06 13:41:31;;;;;;;1999.90;999.90;;;;;;;7.45;54.42;102582.59;15752239;28;20378;-65
2021/03/06 13:49:03;;;;;;;1999.90;999.90;;;;;;;6.93;55.03;102583.25;15750008;28;20033;-66
2021/03/06 13:56:35;;;;;;;1999.90;999.90;;;;;;;6.43;56.31;102570.53;15731507;28;20063;-67
2021/03/06 14:04:07;;;;;;;1999.90;999.90;;;;;;;6.57;56.59;102587.63;15748564;28;20037;-67
2021/03/06 14:11:39;;;;;;;1999.90;999.90;;;;;;;6.47;57.14;102588.34;15748200;28;20103;-67
2021/03/06 14:19:11;;;;;;;1999.90;999.90;;;;;;;6.85;56.46;102578.19;15731510;28;20036;-67
2021/03/06 14:26:44;;;;;;;1999.90;999.90;;;;;;;6.97;55.85;102553.88;15742857;28;20041;-65
2021/03/06 14:34:16;;;;;;;1999.90;999.90;;;;;;;6.79;56.07;102555.13;15710805;28;20051;-65
2021/03/06 14:41:52;;;;;;;1999.90;999.90;;;;;;;6.68;56.13;102547.78;15742786;28;20090;-65
2021/03/06 14:49:24;;;;;;;1999.90;999.90;;;;;;;6.70;56.87;102540.03;15743200;28;20036;-64
2021/03/06 14:56:58;;;;;;;1999.90;999.90;;;;;;;6.22;59.17;102529.81;15744813;28;20136;-65
2021/03/06 15:04:30;;;;;;;;;;;;;;;6.28;59.17;102528.78;15722770;28;20043;-66
2021/03/06 15:12:03;;;;;;;1999.90;999.90;;;;;;;6.54;58.68;102510.47;15743467;28;20392;-64
2021/03/06 15:19:35;;;;;;;;;;;;;;;6.98;58.05;102504.75;15724202;28;20060;-63
2021/03/06 15:27:10;;;;;;;1999.90;999.90;;;;;;;6.56;59.04;102497.16;15776965;22;19924;-62
2021/03/06 15:34:42;;;;;;;1999.90;999.90;;;;;;;6.36;60.03;102495.88;15755462;28;20040;-63
2021/03/06 15:42:17;;;;;;;1999.90;999.90;;;;;;;6.68;59.83;102491.47;15747099;28;20044;-62
2021/03/06 15:49:49;;;;;;;1999.90;999.90;;;;;;;6.59;60.42;102491.09;15771667;28;20048;-62
2021/03/06 15:57:21;;;;;;;1999.90;999.90;;;;;;;6.65;60.28;102490.88;15769695;28;20131;-61
2021/03/06 16:04:53;;;;;;;1999.90;999.90;;;;;;;6.27;61.81;102500.22;15765722;28;20431;-61
2021/03/06 16:12:26;;;;;;;1999.90;999.90;;;;;;;6.15;62.78;102479.28;15765921;28;20399;-62
2021/03/06 16:19:58;;;;;;;1999.90;999.90;;;;;;;6.36;62.85;102479.25;15762925;28;20516;-61
2021/03/06 16:27:32;;;;;;;1999.90;999.90;;;;;;;6.19;63.44;102488.75;15784103;28;20050;-62
2021/03/06 16:35:07;;;;;;;1999.90;999.90;;;;;;;6.54;63.00;102463.31;15755722;28;20118;-61
2021/03/06 16:42:40;;;;;;;1999.90;999.90;;;;;;;6.27;64.05;102474.44;15755870;28;20295;-64
2021/03/06 16:50:14;;;;;;;1999.90;999.90;;;;;;;5.99;64.68;102469.97;15765947;28;20045;-64
2021/03/06 16:57:46;;;;;;;1999.90;999.90;;;;;;;6.17;64.40;102477.94;15742865;28;20048;-63
2021/03/06 17:05:19;;;;;;;1999.90;999.90;;;;;;;6.66;63.30;102477.84;15717959;28;20076;-64
2021/03/06 17:12:53;;;;;;;1999.90;999.90;;;;;;;6.80;62.60;102479.09;15768375;28;20070;-63
2021/03/06 17:20:25;;;;;;;1999.90;999.90;;;;;;;6.79;62.00;102482.13;15748672;28;20037;-63
2021/03/06 17:27:58;;;;;;;1999.90;999.90;;;;;;;6.58;62.60;102476.41;15735285;28;20049;-63
2021/03/06 17:35:30;;;;;;;1999.90;999.90;;;;;;;6.47;62.67;102480.19;15736282;28;20032;-63
2021/03/06 17:43:02;;;;;;;1999.90;999.90;;;;;;;6.49;63.06;102477.97;15726888;28;20053;-63
2021/03/06 17:50:34;;;;;;;1999.90;999.90;;;;;;;6.38;63.20;102470.66;15745332;28;20385;-62
2021/03/06 17:58:06;;;;;;;1999.90;999.90;;;;;;;6.31;63.90;102468.09;15744698;28;20044;-63
2021/03/06 18:05:39;;;;;;;1999.90;999.90;;;;;;;6.55;62.98;102454.72;15745081;28;20040;-63
2021/03/06 18:13:14;;;;;;;1999.90;999.90;;;;;;;6.76;62.56;102446.56;15726464;28;20048;-63
2021/03/06 18:20:46;;;;;;;1999.90;999.90;;;;;;;6.66;62.28;102442.59;15745188;28;20041;-63
2021/03/06 18:28:19;;;;;;;1999.90;999.90;;;;;;;6.63;63.18;102451.47;15725599;28;20070;-59
2021/03/06 18:35:51;;;;;;;1999.90;999.90;;;;;;;6.58;63.61;102429.25;15725730;28;20120;-59
2021/03/06 18:43:23;;;;;;;1999.90;999.90;;;;;;;6.60;63.34;102421.50;15719757;28;20087;-59
2021/03/06 18:50:55;;;;;;;1999.90;999.90;;;;;;;6.39;64.09;102424.34;15686815;28;20409;-62
2021/03/06 18:58:27;;;;;;;1999.90;999.90;;;;;;;6.53;63.50;102417.25;15699505;28;20051;-60
2021/03/06 19:05:59;;;;;;;1999.90;999.90;;;;;;;6.47;63.44;102410.00;15739131;28;20086;-64
2021/03/06 19:13:31;;;;;;;1999.90;999.90;;;;;;;6.32;64.33;102389.34;15740570;28;20033;-62
2021/03/06 19:21:03;;;;;;;1999.90;999.90;;;;;;;6.43;64.19;102383.91;15723863;28;20076;-62
2021/03/06 19:28:36;;;;;;;1999.90;999.90;;;;;;;6.38;64.58;102378.31;15785719;28;20057;-61
2021/03/06 19:36:08;;;;;;;1999.90;999.90;;;;;;;6.18;64.71;102390.91;15740692;28;20040;-59
2021/03/06 19:43:42;;;;;;;1999.90;999.90;;;;;;;6.40;63.99;102374.19;15743067;28;20045;-59
2021/03/06 19:51:14;;;;;;;1999.90;999.90;;;;;;;6.47;64.12;102380.34;15745247;28;20491;-61
2021/03/06 19:58:46;;;;;;;1999.90;999.90;;;;;;;6.29;64.55;102373.25;15786705;28;20424;-62
2021/03/06 20:06:18;;;;;;;1999.90;999.90;;;;;;;6.15;64.56;102379.47;15757333;28;20060;-61
2021/03/06 20:13:52;;;;;;;1999.90;999.90;;;;;;;6.19;64.59;102367.63;15779669;28;20575;-58
2021/03/06 20:21:23;;;;;;;1999.90;999.90;;;;;;;6.13;65.39;102385.28;15767143;28;20040;-58
2021/03/06 20:28:57;;;;;;;1999.90;999.90;;;;;;;6.10;64.82;102371.13;15771085;28;20112;-59
2021/03/06 20:36:29;;;;;;;1999.90;999.90;;;;;;;6.09;64.75;102375.84;15790241;28;20391;-60
2021/03/06 20:44:01;;;;;;;1999.90;999.90;;;;;;;6.21;64.39;102364.56;15722255;28;20044;-63
2021/03/06 20:51:33;;;;;;;1999.90;999.90;;;;;;;6.06;64.58;102357.81;15775475;28;20044;-63
2021/03/06 20:59:06;;;;;;;1999.90;999.90;;;;;;;6.13;64.75;102352.03;15779116;28;20119;-62
2021/03/06 21:06:38;;;;;;;1999.90;999.90;;;;;;;6.21;64.69;102361.81;15754923;28;20052;-60
2021/03/06 21:14:10;;;;;;;1999.90;999.90;;;;;;;6.10;65.13;102352.56;15801235;28;20107;-61
2021/03/06 21:21:42;;;;;;;1999.90;999.90;;;;;;;5.97;64.90;102339.16;15802050;28;20086;-60
2021/03/06 21:29:15;;;;;;;1999.90;999.90;;;;;;;5.96;65.36;102329.16;15774469;28;20048;-59
2021/03/06 21:36:46;;;;;;;1999.90;999.90;;;;;;;6.14;64.32;102336.22;15747482;28;20048;-60
2021/03/06 21:44:20;;;;;;;1999.90;999.90;;;;;;;6.16;64.38;102311.88;15781847;28;20024;-60
2021/03/06 21:51:51;;;;;;;1999.90;999.90;;;;;;;6.01;64.88;102316.19;15738907;28;20393;-58
2021/03/06 21:59:24;;;;;;;1999.90;999.90;;;;;;;6.18;64.76;102307.75;15764402;28;20161;-61
2021/03/06 22:06:55;;;;;;;1999.90;999.90;;;;;;;6.12;64.85;102308.78;15782362;28;20051;-55
2021/03/06 22:14:29;;;;;;;1999.90;999.90;;;;;;;6.06;65.18;102293.22;15768985;28;20405;-56
2021/03/06 22:22:01;;;;;;;1999.90;999.90;;;;;;;6.10;64.90;102297.13;15763292;28;20044;-62
2021/03/06 22:29:33;;;;;;;1999.90;999.90;;;;;;;5.75;66.74;102284.59;15805863;28;20048;-61
2021/03/06 22:37:05;;;;;;;1999.90;999.90;;;;;;;5.76;66.34;102275.19;15758484;28;20048;-61
2021/03/06 22:44:37;;;;;;;1999.90;999.90;;;;;;;5.90;66.48;102263.66;15758999;28;20456;-59
2021/03/06 22:52:09;;;;;;;1999.90;999.90;;;;;;;6.07;66.07;102259.69;15751587;28;20048;-59
2021/03/06 22:59:41;;;;;;;1999.90;999.90;;;;;;;5.95;66.70;102249.91;15761516;28;20055;-57
2021/03/06 23:07:13;;;;;;;1999.90;999.90;;;;;;;6.07;65.83;102251.38;15761234;28;20056;-59
2021/03/06 23:14:46;;;;;;;1999.90;999.90;;;;;;;5.96;67.00;102243.25;15764856;28;20496;-60
2021/03/06 23:22:17;;;;;;;1999.90;999.90;;;;;;;5.79;66.89;102232.28;15743722;28;20056;-60
2021/03/06 23:29:49;;;;;;;1999.90;999.90;;;;;;;5.81;66.69;102224.53;15755796;28;20566;-60
2021/03/06 23:37:21;;;;;;;1999.90;999.90;;;;;;;5.79;67.28;102213.72;15778624;28;20052;-60
2021/03/06 23:44:53;;;;;;;1999.90;999.90;;;;;;;6.02;65.98;102211.69;15759331;28;20123;-61
2021/03/06 23:52:25;;;;;;;1999.90;999.90;;;;;;;5.77;66.96;102209.56;15760676;28;20040;-63
2021/03/06 23:59:57;;;;;;;1999.90;999.90;;;;;;;6.01;66.43;102207.25;15778607;28;20410;-59
